Time;durP1;ratioP1;P1;durP2;ratioP2;P2;SDS_P1;SDS_P2;PMS_P1;PMS_P2;Temp;Humidity;BMP_temperature;BMP_pressure;BME280_temperature;BME280_humidity;BME280_pressure;Samples;Min_cycle;Max_cycle;Signal;HPM_P1;HPM_P2
2023/01/09 00:00:36;;;;;;;;;3.00;1.75;;;;;7.82;71.85;99249.38;5040558;28;45331;-68
2023/01/09 00:03:01;;;;;;;;;1.50;0.00;;;;;8.06;71.97;99289.25;5059705;28;45426;-68
2023/01/09 00:05:27;;;;;;;;;0.75;0.00;;;;;8.05;71.73;99287.53;5029603;28;45527;-67
2023/01/09 00:07:53;;;;;;;;;0.00;0.00;;;;;8.05;71.89;99303.44;5017586;28;46164;-68
2023/01/09 00:10:18;;;;;;;;;2.25;0.00;;;;;8.03;72.37;99283.31;5019598;28;45485;-67
2023/01/09 00:12:44;;;;;;;;;2.00;0.25;;;;;8.04;72.49;99299.09;5020902;28;45423;-68
2023/01/09 00:15:14;;;;;;;;;0.00;0.00;;;;;8.02;72.24;99301.00;5038484;28;45245;-66
2023/01/09 00:17:39;;;;;;;;;0.00;0.00;;;;;7.98;72.54;99286.28;5018645;28;46195;-67
2023/01/09 00:20:09;;;;;;;;;1.00;1.00;;;;;8.02;72.50;99303.63;5012198;28;45408;-66
2023/01/09 00:22:36;;;;;;;;;2.25;0.00;;;;;8.00;72.76;99305.53;5037244;28;45390;-67
2023/01/09 00:25:03;;;;;;;;;0.00;0.00;;;;;8.02;72.87;99298.34;5038794;28;45238;-68
2023/01/09 00:27:33;;;;;;;;;1.25;0.00;;;;;7.91;73.09;99277.03;5038294;28;45506;-69
2023/01/09 00:29:59;;;;;;;;;0.50;0.50;;;;;8.00;72.60;99294.97;5039526;28;45393;-69
2023/01/09 00:32:25;;;;;;;;;4.25;0.00;;;;;7.94;72.70;99279.47;5038967;28;45282;-68
2023/01/09 00:34:51;;;;;;;;;3.25;1.00;;;;;8.00;72.56;99297.59;5022671;28;45427;-67
2023/01/09 00:37:19;;;;;;;;;0.25;0.25;;;;;7.99;72.24;99290.63;5021595;28;45971;-67
2023/01/09 00:39:45;;;;;;;;;1.00;1.00;;;;;7.99;72.39;99298.56;5019098;28;45558;-66
2023/01/09 00:42:22;;;;;;;;;1.00;1.00;;;;;8.04;72.42;99291.16;5037539;28;45490;-68
2023/01/09 00:45:00;;;;;;;;;2.25;0.75;;;;;8.04;72.11;99299.09;5038365;28;45542;-66
2023/01/09 00:47:32;;;;;;;;;0.50;0.50;;;;;8.06;72.60;99304.28;5017684;28;46960;-66
2023/01/09 00:50:07;;;;;;;;;0.50;0.50;;;;;8.09;72.44;99297.00;5018080;28;45359;-66
2023/01/09 00:52:36;;;;;;;;;0.00;0.00;;;;;8.08;72.18;99313.84;5031649;28;45434;-68
2023/01/09 00:55:03;;;;;;;;;1.00;1.00;;;;;8.06;72.32;99302.47;5036526;28;45435;-66
2023/01/09 00:57:29;;;;;;;;;1.25;1.00;;;;;7.96;72.04;99298.75;5037159;28;46981;-67
2023/01/09 00:59:56;;;;;;;;;1.00;1.00;;;;;8.09;72.07;99310.25;5037545;28;45523;-67
2023/01/09 01:02:22;;;;;;;;;0.00;0.00;;;;;8.09;72.27;99312.88;5023848;28;45416;-67
2023/01/09 01:07:37;;;;;;;;;2.00;0.75;;;;;8.02;71.98;99302.78;5029181;28;45719;-68
2023/01/09 01:10:11;;;;;;;;;2.00;0.75;;;;;8.07;72.85;99312.13;5057810;28;45224;-67
2023/01/09 01:12:38;;;;;;;;;2.00;0.00;;;;;8.12;72.56;99336.50;5039596;28;45490;-67
2023/01/09 01:15:05;;;;;;;;;2.50;0.25;;;;;8.13;72.60;99324.97;5018788;28;45724;-68
2023/01/09 01:17:33;;;;;;;;;1.00;0.25;;;;;8.10;72.28;99322.53;5036000;28;47199;-69
2023/01/09 01:20:04;;;;;;;;;2.00;0.00;;;;;8.04;72.42;99317.63;5036947;28;45183;-68
2023/01/09 01:22:30;;;;;;;;;1.00;0.00;;;;;8.13;71.73;99322.31;5036943;28;45402;-69
2023/01/09 01:24:56;;;;;;;;;0.00;0.00;;;;;8.11;72.05;99318.09;5020854;28;45697;-68
2023/01/09 01:27:21;;;;;;;;;1.00;1.00;;;;;8.09;72.70;99318.19;5032170;28;45532;-67
2023/01/09 01:29:46;;;;;;;;;1.00;0.00;;;;;8.09;72.46;99326.13;5037014;28;45442;-67
2023/01/09 01:32:12;;;;;;;;;0.75;0.25;;;;;8.04;72.48;99311.47;5037010;28;45347;-66
2023/01/09 01:34:38;;;;;;;;;0.00;0.00;;;;;8.01;72.54;99317.84;5019253;28;45416;-68
2023/01/09 01:37:03;;;;;;;;;1.25;1.25;;;;;8.07;72.12;99327.16;5035362;28;46119;-65
2023/01/09 01:39:29;;;;;;;;;2.00;0.00;;;;;8.08;72.02;99340.31;5036594;28;45359;-70
2023/01/09 01:41:54;;;;;;;;;0.00;0.00;;;;;8.06;72.22;99331.59;5049170;28;45715;-66
2023/01/09 01:44:57;;;;;;;;;1.75;1.00;;;;;8.05;72.71;99335.19;5027270;28;45512;-66
2023/01/09 01:47:34;;;;;;;;;5.00;1.00;;;;;8.07;72.57;99348.34;5019712;28;45999;-66
2023/01/09 01:50:03;;;;;;;;;2.50;0.75;;;;;8.04;72.43;99349.41;5037215;28;45531;-65
2023/01/09 01:52:32;;;;;;;;;2.50;2.00;;;;;8.07;72.62;99353.63;5036546;28;45407;-67
2023/01/09 01:54:57;;;;;;;;;3.00;1.25;;;;;8.06;72.13;99342.19;5025557;28;45566;-66
2023/01/09 01:57:26;;;;;;;;;6.25;1.75;;;;;8.06;72.58;99358.09;5031829;28;45521;-67
2023/01/09 01:59:58;;;;;;;;;2.00;0.25;;;;;8.14;72.62;99345.19;5030674;28;45220;-68
2023/01/09 02:02:31;;;;;;;;;2.00;1.00;;;;;8.15;73.02;99341.59;5025172;28;45403;-67
2023/01/09 02:04:59;;;;;;;;;5.50;0.00;;;;;8.15;72.46;99336.31;4998675;28;45603;-67
2023/01/09 02:07:25;;;;;;;;;1.25;0.00;;;;;8.17;72.65;99349.44;5017322;28;46632;-67
2023/01/09 02:09:51;;;;;;;;;3.00;2.00;;;;;8.19;72.66;99355.47;5035309;28;45386;-67
2023/01/09 02:12:26;;;;;;;;;10.25;2.00;;;;;8.23;72.32;99349.91;5033617;28;45400;-68
2023/01/09 02:15:02;;;;;;;;;2.75;1.25;;;;;8.16;72.42;99343.28;5016251;28;45376;-68
2023/01/09 02:17:52;;;;;;;;;1.00;1.00;;;;;8.20;72.22;99357.19;5008337;28;46863;-68
2023/01/09 02:20:36;;;;;;;;;2.00;0.75;;;;;8.21;71.82;99354.44;5035944;28;45346;-66
2023/01/09 02:23:23;;;;;;;;;0.00;0.00;;;;;8.24;72.73;99362.19;5012760;28;45607;-66
2023/01/09 02:26:06;;;;;;;;;2.00;2.00;;;;;8.24;72.76;99359.53;5023439;28;45343;-67
2023/01/09 02:28:59;;;;;;;;;0.75;0.50;;;;;8.21;72.75;99367.69;5035677;28;45504;-66
2023/01/09 02:31:36;;;;;;;;;3.25;2.00;;;;;8.20;72.50;99355.41;5035802;28;45349;-66
2023/01/09 02:34:20;;;;;;;;;1.00;1.00;;;;;8.23;72.56;99384.34;5035144;28;45290;-66
2023/01/09 02:36:49;;;;;;;;;1.25;0.25;;;;;8.22;73.15;99381.78;5028156;28;45675;-66
2023/01/09 02:39:21;;;;;;;;;2.25;0.75;;;;;8.18;72.61;99367.03;5030712;28;45437;-67
2023/01/09 02:42:16;;;;;;;;;2.00;0.25;;;;;8.16;73.08;99383.03;5015942;28;45463;-67
2023/01/09 02:44:43;;;;;;;;;2.00;0.25;;;;;8.17;72.69;99397.97;5003028;28;45425;-67
2023/01/09 02:47:14;;;;;;;;;0.00;0.00;;;;;8.18;72.77;99377.63;5016911;28;45400;-67
2023/01/09 02:49:58;;;;;;;;;1.75;1.00;;;;;8.14;73.66;99379.63;5029378;28;46280;-70
2023/01/09 02:53:01;;;;;;;;;6.75;1.00;;;;;8.14;73.47;99378.78;5030817;28;45194;-67
2023/01/09 02:55:53;;;;;;;;;3.00;1.00;;;;;8.15;73.26;99370.72;5008859;28;45696;-68
2023/01/09 02:58:59;;;;;;;;;2.25;1.00;;;;;8.18;73.62;99375.81;5043429;28;45324;-67
2023/01/09 03:01:50;;;;;;;;;1.00;1.00;;;;;8.20;73.01;99379.25;5036099;28;45288;-68
2023/01/09 03:04:41;;;;;;;;;1.00;1.00;;;;;8.22;73.29;99400.31;5008374;28;45884;-66
2023/01/09 03:07:14;;;;;;;;;1.25;1.25;;;;;8.26;72.88;99380.63;5035951;28;45365;-66
2023/01/09 03:09:42;;;;;;;;;1.75;1.00;;;;;8.23;73.47;99372.88;5021356;28;45370;-66
2023/01/09 03:12:17;;;;;;;;;1.50;0.25;;;;;8.25;72.41;99378.94;5036560;28;46910;-68
2023/01/09 03:14:46;;;;;;;;;1.00;0.00;;;;;8.20;73.40;99375.72;5019787;28;45253;-69
2023/01/09 03:17:14;;;;;;;;;1.75;0.00;;;;;8.21;73.16;99388.88;5026014;28;45428;-67
2023/01/09 03:19:41;;;;;;;;;3.50;1.00;;;;;8.24;72.99;99393.97;5027018;28;45376;-68
2023/01/09 03:22:07;;;;;;;;;2.00;0.75;;;;;8.26;73.05;99392.06;5025938;28;46866;-66
2023/01/09 03:24:33;;;;;;;;;2.00;0.25;;;;;8.24;73.04;99387.81;5035019;28;45288;-67
2023/01/09 03:26:59;;;;;;;;;5.25;1.25;;;;;8.32;72.51;99389.97;5037543;28;45392;-65
2023/01/09 03:29:24;;;;;;;;;2.25;1.00;;;;;8.36;72.85;99381.75;5039231;28;45499;-67
2023/01/09 03:31:50;;;;;;;;;5.00;0.50;;;;;8.32;71.71;99380.22;5038624;28;46366;-68
2023/01/09 03:34:15;;;;;;;;;0.75;0.00;;;;;8.35;71.89;99384.50;5030538;28;45387;-66
2023/01/09 03:36:41;;;;;;;;;2.00;0.00;;;;;8.39;72.12;99380.69;5002744;28;45522;-67
2023/01/09 03:39:06;;;;;;;;;0.00;0.00;;;;;8.48;71.94;99398.66;5031705;28;45494;-66
2023/01/09 03:41:32;;;;;;;;;4.75;1.00;;;;;8.54;71.63;99398.22;5038463;28;45450;-68
2023/01/09 03:43:57;;;;;;;;;1.00;1.00;;;;;8.51;71.36;99393.97;5038213;28;45249;-65
2023/01/09 03:46:22;;;;;;;;;1.75;0.00;;;;;8.53;71.53;99393.88;5036775;28;45375;-67
2023/01/09 03:48:48;;;;;;;;;0.00;0.00;;;;;8.48;71.33;99396.00;5038525;28;45384;-67
2023/01/09 03:51:13;;;;;;;;;0.00;0.00;;;;;8.53;71.51;99400.03;5028245;28;61673;-67
2023/01/09 03:53:40;;;;;;;;;2.00;2.00;;;;;8.53;71.28;99407.97;5025830;28;45383;-67
2023/01/09 03:56:06;;;;;;;;;2.00;1.00;;;;;8.55;70.79;99399.91;5019468;28;45366;-67
2023/01/09 03:58:31;;;;;;;;;2.75;0.75;;;;;8.56;71.81;99398.97;5024707;28;45678;-66
2023/01/09 04:00:59;;;;;;;;;2.00;0.00;;;;;8.51;71.78;99404.59;5003931;28;47256;-67
2023/01/09 04:03:24;;;;;;;;;1.00;1.00;;;;;8.50;70.73;99407.34;5038176;28;45346;-67
2023/01/09 04:05:49;;;;;;;;;2.00;0.00;;;;;8.53;71.00;99415.06;5037678;28;45351;-70
2023/01/09 04:08:15;;;;;;;;;4.00;0.50;;;;;8.46;71.22;99406.69;5038372;28;45379;-66
2023/01/09 04:10:46;;;;;;;;;1.00;1.00;;;;;8.52;70.99;99414.22;5035613;28;45547;-66
2023/01/09 04:13:12;;;;;;;;;0.50;0.50;;;;;8.59;70.59;99430.56;5038242;28;45254;-67
2023/01/09 04:15:37;;;;;;;;;0.00;0.00;;;;;8.60;70.55;99432.28;5020290;28;45378;-65
2023/01/09 04:18:03;;;;;;;;;3.00;1.50;;;;;8.62;70.44;99433.03;5038529;28;45343;-66
2023/01/09 04:20:29;;;;;;;;;1.75;0.50;;;;;8.65;69.87;99429.31;5034808;28;45265;-67
2023/01/09 04:22:58;;;;;;;;;2.00;0.25;;;;;8.69;69.38;99436.94;5018200;28;45232;-66
2023/01/09 04:25:24;;;;;;;;;2.00;1.00;;;;;8.64;69.86;99417.00;5023024;28;45394;-67
2023/01/09 04:27:53;;;;;;;;;1.00;0.00;;;;;8.77;70.08;99434.66;5036458;28;45297;-67
2023/01/09 04:30:18;;;;;;;;;0.00;0.00;;;;;8.80;69.04;99429.13;5037040;28;45629;-66
2023/01/09 04:32:44;;;;;;;;;1.00;0.00;;;;;8.76;68.65;99416.19;5037928;28;45349;-67
2023/01/09 04:35:10;;;;;;;;;0.00;0.00;;;;;8.72;69.09;99398.78;5038382;28;45351;-66
2023/01/09 04:37:36;;;;;;;;;4.00;0.25;;;;;8.82;69.76;99427.22;5038606;28;45545;-65
2023/01/09 04:40:09;;;;;;;;;1.50;0.00;;;;;8.74;69.75;99418.09;5037253;28;45845;-68
2023/01/09 04:42:34;;;;;;;;;1.00;1.00;;;;;8.77;68.84;99439.09;5038135;28;45234;-67
2023/01/09 04:44:59;;;;;;;;;1.00;1.00;;;;;8.80;69.63;99438.88;5020588;28;45420;-66
2023/01/09 04:47:25;;;;;;;;;0.00;0.00;;;;;8.80;69.21;99441.53;5037967;28;45418;-67
2023/01/09 04:49:51;;;;;;;;;1.00;0.00;;;;;8.80;69.15;99439.75;5037325;28;46042;-66
2023/01/09 04:52:16;;;;;;;;;0.00;0.00;;;;;8.77;68.93;99442.59;5031694;28;45461;-67
2023/01/09 04:54:42;;;;;;;;;1.25;1.25;;;;;8.76;69.82;99440.91;5037974;28;45430;-69
2023/01/09 04:57:07;;;;;;;;;2.75;0.00;;;;;8.65;68.98;99429.31;5019991;28;45852;-69
2023/01/09 04:59:32;;;;;;;;;1.00;1.00;;;;;8.75;69.89;99439.22;5037375;28;46125;-66
2023/01/09 05:01:59;;;;;;;;;0.00;0.00;;;;;8.75;69.37;99436.56;5025381;28;45534;-68
2023/01/09 05:04:24;;;;;;;;;1.25;0.50;;;;;8.85;68.70;99458.84;5019542;28;45435;-67
2023/01/09 05:06:49;;;;;;;;;0.00;0.00;;;;;8.85;69.21;99442.94;5034029;28;45616;-67
2023/01/09 05:09:15;;;;;;;;;0.00;0.00;;;;;8.77;69.59;99449.69;5038560;28;46451;-67
2023/01/09 05:11:40;;;;;;;;;2.00;0.00;;;;;8.89;69.36;99448.88;5037147;28;45387;-68
2023/01/09 05:14:06;;;;;;;;;0.00;0.00;;;;;8.93;68.84;99452.16;5024668;28;45307;-67
2023/01/09 05:16:31;;;;;;;;;0.00;0.00;;;;;8.95;69.24;99469.66;5036119;28;45269;-68
2023/01/09 05:18:59;;;;;;;;;1.00;0.00;;;;;8.99;69.98;99470.34;5022150;28;46030;-69
2023/01/09 05:21:27;;;;;;;;;0.00;0.00;;;;;8.98;69.49;99473.91;5018810;28;45547;-68
2023/01/09 05:23:53;;;;;;;;;1.25;0.00;;;;;9.01;69.65;99468.44;5035240;28;45496;-68
2023/01/09 05:26:22;;;;;;;;;0.00;0.00;;;;;9.00;69.06;99488.78;5031813;28;45503;-65
2023/01/09 05:28:49;;;;;;;;;0.25;0.00;;;;;9.04;69.21;99492.94;5029368;28;46589;-66
2023/01/09 05:31:14;;;;;;;;;0.50;0.00;;;;;9.04;69.77;99494.72;5026367;28;45331;-66
2023/01/09 05:33:39;;;;;;;;;1.00;0.00;;;;;9.04;69.85;99500.88;5038563;28;45507;-67
2023/01/09 05:36:05;;;;;;;;;0.75;0.00;;;;;9.07;69.17;99505.13;5031834;28;45566;-66
2023/01/09 05:38:31;;;;;;;;;3.00;0.00;;;;;9.02;69.19;99513.41;5035010;28;45439;-67
2023/01/09 05:40:56;;;;;;;;;0.75;0.75;;;;;9.02;69.12;99513.41;5032474;28;45348;-65
2023/01/09 05:43:21;;;;;;;;;3.00;0.00;;;;;8.98;68.55;99508.38;5023593;28;45417;-67
2023/01/09 05:45:47;;;;;;;;;2.00;0.75;;;;;8.98;69.38;99511.03;5018975;28;45654;-65
2023/01/09 05:48:12;;;;;;;;;1.25;0.00;;;;;9.04;69.35;99516.78;5032285;28;47386;-68
2023/01/09 05:50:37;;;;;;;;;1.00;0.00;;;;;9.05;68.40;99512.34;5031857;28;45384;-68
2023/01/09 05:53:03;;;;;;;;;1.00;0.00;;;;;9.01;68.03;99505.56;5032891;28;45499;-66
2023/01/09 05:55:28;;;;;;;;;6.00;0.00;;;;;9.01;68.64;99509.06;5030681;28;45538;-67
2023/01/09 05:57:53;;;;;;;;;0.00;0.00;;;;;9.08;68.10;99522.75;5033650;28;45483;-66
2023/01/09 06:00:19;;;;;;;;;0.00;0.00;;;;;8.99;67.81;99502.16;5034250;28;45448;-66
2023/01/09 06:02:48;;;;;;;;;1.00;1.00;;;;;9.07;67.61;99515.75;5008611;28;45526;-68
2023/01/09 06:05:13;;;;;;;;;3.00;1.00;;;;;9.11;67.25;99525.19;5021568;28;46716;-66
2023/01/09 06:07:39;;;;;;;;;0.00;0.00;;;;;9.12;67.39;99529.56;5035342;28;45248;-67
2023/01/09 06:10:09;;;;;;;;;2.25;0.00;;;;;8.94;67.72;99494.50;5036811;28;45508;-68
2023/01/09 06:12:43;;;;;;;;;0.50;0.50;;;;;9.17;67.07;99530.09;5034400;28;45463;-66
2023/01/09 06:15:09;;;;;;;;;0.00;0.00;;;;;9.18;67.28;99528.28;5034893;28;45556;-67
2023/01/09 06:17:35;;;;;;;;;1.00;0.00;;;;;9.11;66.30;99525.19;5018839;28;45423;-65
2023/01/09 06:20:00;;;;;;;;;0.00;0.00;;;;;9.09;66.98;99540.34;5022085;28;46685;-67
2023/01/09 06:22:32;;;;;;;;;1.50;0.00;;;;;9.08;67.45;99530.69;5029368;28;45503;-65
2023/01/09 06:24:57;;;;;;;;;1.25;0.00;;;;;9.06;67.34;99537.91;5030085;28;45368;-66
2023/01/09 06:27:23;;;;;;;;;1.00;1.00;;;;;8.99;66.88;99536.63;5036477;28;45455;-65
2023/01/09 06:29:49;;;;;;;;;0.00;0.00;;;;;9.05;66.48;99549.47;5034874;28;45300;-65
2023/01/09 06:32:14;;;;;;;;;0.25;0.00;;;;;9.05;67.11;99555.63;5017160;28;45440;-66
2023/01/09 06:34:39;;;;;;;;;1.75;0.75;;;;;9.06;66.94;99556.47;5017083;28;45597;-66
2023/01/09 06:37:05;;;;;;;;;0.00;0.00;;;;;8.85;67.33;99527.78;5022487;28;46743;-65
2023/01/09 06:39:36;;;;;;;;;2.00;0.00;;;;;9.06;66.17;99561.78;5036775;28;45413;-68
2023/01/09 06:42:05;;;;;;;;;4.00;0.00;;;;;8.89;66.83;99530.22;5037851;28;45460;-66
2023/01/09 06:44:31;;;;;;;;;1.25;0.00;;;;;9.04;66.68;99571.63;5035952;28;47999;-71
2023/01/09 06:46:57;;;;;;;;;0.00;0.00;;;;;9.00;65.16;99563.03;5036583;28;45310;-72
2023/01/09 06:49:23;;;;;;;;;0.00;0.00;;;;;9.01;66.86;99571.84;5019000;28;45481;-68
2023/01/09 06:51:52;;;;;;;;;0.00;0.00;;;;;8.99;66.73;99576.41;5037229;28;45251;-69
2023/01/09 06:54:21;;;;;;;;;0.00;0.00;;;;;8.92;66.01;99569.78;5019718;28;45608;-72
2023/01/09 06:56:46;;;;;;;;;1.25;0.00;;;;;8.90;66.10;99569.06;5032762;28;46389;-69
2023/01/09 06:59:12;;;;;;;;;0.00;0.00;;;;;8.84;66.33;99565.81;5016398;28;45239;-69
2023/01/09 07:01:38;;;;;;;;;0.00;0.00;;;;;8.99;66.35;99576.41;4998388;28;45818;-63
2023/01/09 07:04:05;;;;;;;;;3.00;0.00;;;;;9.01;65.84;99595.72;4998645;28;45254;-63
2023/01/09 07:06:31;;;;;;;;;0.00;0.00;;;;;9.01;65.68;99591.25;5030842;28;46141;-64
2023/01/09 07:08:56;;;;;;;;;0.00;0.00;;;;;8.96;65.79;99592.50;5035184;28;45419;-65
2023/01/09 07:11:22;;;;;;;;;0.00;0.00;;;;;8.97;66.55;99594.19;5017183;28;46004;-62
2023/01/09 07:13:47;;;;;;;;;0.00;0.00;;;;;9.00;65.86;99605.47;5025921;28;45450;-69
2023/01/09 07:16:12;;;;;;;;;1.00;1.00;;;;;8.98;65.41;99607.34;5015003;28;45389;-65
2023/01/09 07:18:38;;;;;;;;;0.00;0.00;;;;;8.96;65.84;99611.06;5012006;28;45893;-59
2023/01/09 07:21:05;;;;;;;;;1.00;1.00;;;;;8.91;64.58;99600.75;5013425;28;45419;-64
2023/01/09 07:23:32;;;;;;;;;3.75;0.00;;;;;8.93;64.92;99616.56;5027322;28;45336;-64
2023/01/09 07:25:58;;;;;;;;;1.00;0.50;;;;;8.82;65.76;99596.91;5031291;28;45752;-63
2023/01/09 07:28:25;;;;;;;;;0.00;0.00;;;;;8.92;65.16;99605.13;5033049;28;45484;-62
2023/01/09 07:30:50;;;;;;;;;0.00;0.00;;;;;8.92;65.78;99598.97;5033109;28;45846;-64
2023/01/09 07:33:16;;;;;;;;;1.25;0.00;;;;;8.89;66.20;99607.97;5032271;28;45410;-63
2023/01/09 07:35:41;;;;;;;;;0.25;0.00;;;;;8.86;65.44;99609.03;5022740;28;45582;-65
2023/01/09 07:38:07;;;;;;;;;0.00;0.00;;;;;8.82;65.17;99612.81;5031475;28;45493;-64
2023/01/09 07:40:32;;;;;;;;;0.00;0.00;;;;;8.75;65.15;99595.59;5031225;28;45391;-66
2023/01/09 07:42:58;;;;;;;;;2.00;0.00;;;;;8.82;65.97;99607.50;5036885;28;45760;-64
2023/01/09 07:45:24;;;;;;;;;0.00;0.00;;;;;8.82;65.49;99614.59;5036363;28;45779;-63
2023/01/09 07:47:51;;;;;;;;;1.00;0.00;;;;;8.77;65.19;99620.22;5018158;28;45384;-64
2023/01/09 07:50:17;;;;;;;;;0.00;0.00;;;;;8.73;66.15;99639.94;5019556;28;45847;-64
2023/01/09 07:52:46;;;;;;;;;0.00;0.00;;;;;8.69;65.77;99633.09;5019273;28;45261;-65
2023/01/09 07:55:12;;;;;;;;;0.00;0.00;;;;;8.74;65.75;99644.28;5034052;28;46109;-64
2023/01/09 07:57:37;;;;;;;;;0.00;0.00;;;;;8.71;66.05;99635.66;5020060;28;45455;-64
2023/01/09 08:00:05;;;;;;;;;1.25;0.00;;;;;8.76;65.33;99657.44;5036485;28;45407;-65
2023/01/09 08:02:31;;;;;;;;;1.00;0.00;;;;;8.77;65.39;99652.03;5032207;28;45426;-65
2023/01/09 08:04:57;;;;;;;;;0.75;0.75;;;;;8.71;65.30;99638.28;5037969;28;45343;-63
2023/01/09 08:07:22;;;;;;;;;2.00;0.00;;;;;8.75;65.82;99653.06;5028548;28;45559;-64
2023/01/09 08:09:47;;;;;;;;;0.00;0.00;;;;;8.80;65.67;99657.13;5028871;28;45465;-63
2023/01/09 08:12:13;;;;;;;;;0.00;0.00;;;;;8.78;66.45;99659.03;5029581;28;45621;-63
2023/01/09 08:14:39;;;;;;;;;3.00;0.00;;;;;8.81;65.86;99669.44;5030851;28;45542;-63
2023/01/09 08:17:04;;;;;;;;;0.00;0.00;;;;;8.77;65.70;99672.38;4991627;28;45308;-63
2023/01/09 08:19:29;;;;;;;;;0.00;0.00;;;;;8.76;64.77;99676.84;5023359;28;45400;-63
2023/01/09 08:21:55;;;;;;;;;0.00;0.00;;;;;8.71;65.36;99673.59;5018645;28;45174;-63
2023/01/09 08:24:20;;;;;;;;;0.00;0.00;;;;;8.68;65.12;99673.81;5017265;28;45823;-62
2023/01/09 08:26:46;;;;;;;;;0.00;0.00;;;;;8.67;64.55;99689.81;5026499;28;45531;-63
2023/01/09 08:29:11;;;;;;;;;0.00;0.00;;;;;8.71;65.52;99709.88;5021583;28;45586;-65
2023/01/09 08:31:37;;;;;;;;;2.00;0.00;;;;;8.66;65.67;99706.66;5017646;28;45597;-64
2023/01/09 08:34:02;;;;;;;;;1.00;1.00;;;;;8.68;64.61;99710.91;5017037;28;45416;-65
2023/01/09 08:36:27;;;;;;;;;0.00;0.00;;;;;8.66;64.98;99704.84;5000300;28;45484;-63
2023/01/09 08:38:53;;;;;;;;;0.00;0.00;;;;;8.65;64.89;99716.41;5017646;28;45436;-64
2023/01/09 08:47:05;;;;;;;;;0.50;0.50;;;;;8.67;65.03;99729.56;5025510;28;46414;-65
2023/01/09 08:49:31;;;;;;;;;3.00;1.00;;;;;8.66;64.76;99711.97;5031592;28;46979;-65
2023/01/09 08:51:57;;;;;;;;;0.25;0.00;;;;;8.62;64.76;99711.31;5031758;28;45266;-65
2023/01/09 08:54:22;;;;;;;;;0.25;0.25;;;;;8.57;64.90;99692.16;5057128;28;45940;-65
2023/01/09 08:56:48;;;;;;;;;0.00;0.00;;;;;8.56;64.50;99719.63;5057780;28;45344;-64
2023/01/09 08:59:14;;;;;;;;;1.00;0.00;;;;;8.56;65.19;99722.28;5024780;28;45503;-65
2023/01/09 09:01:40;;;;;;;;;0.00;0.00;;;;;8.54;64.98;99742.72;5019540;28;45585;-65
2023/01/09 09:04:05;;;;;;;;;0.25;0.00;;;;;8.55;65.07;99749.72;5020549;28;46150;-65
2023/01/09 09:06:31;;;;;;;;;3.00;0.00;;;;;8.48;64.83;99730.72;5013128;28;45374;-67
2023/01/09 09:09:01;;;;;;;;;0.00;0.00;;;;;8.48;64.18;99729.84;5027002;28;45210;-67
2023/01/09 09:11:30;;;;;;;;;0.00;0.00;;;;;8.52;64.44;99764.03;5020981;28;45390;-66
2023/01/09 09:13:56;;;;;;;;;0.75;0.00;;;;;8.47;64.95;99754.66;5016978;28;45289;-65
2023/01/09 09:16:23;;;;;;;;;1.00;0.00;;;;;8.47;65.14;99765.25;5016080;28;46154;-65
2023/01/09 09:18:48;;;;;;;;;0.00;0.00;;;;;8.51;64.80;99782.66;5029072;28;45389;-66
2023/01/09 09:21:14;;;;;;;;;0.00;0.00;;;;;8.55;65.23;99792.97;4999848;28;45357;-65
2023/01/09 09:23:40;;;;;;;;;0.75;0.00;;;;;8.56;65.61;99794.69;5020926;28;46199;-64
2023/01/09 09:26:05;;;;;;;;;0.00;0.00;;;;;8.50;64.60;99788.91;5035089;28;45282;-65
2023/01/09 09:28:30;;;;;;;;;0.00;0.00;;;;;8.46;65.36;99797.97;5027872;28;45657;-64
2023/01/09 09:30:56;;;;;;;;;0.00;0.00;;;;;8.49;65.26;99801.31;5047228;28;45526;-64
2023/01/09 09:33:21;;;;;;;;;0.00;0.00;;;;;8.45;65.34;99796.25;5009592;28;46353;-65
2023/01/09 09:35:46;;;;;;;;;0.00;0.00;;;;;8.50;65.02;99799.50;5017003;28;45523;-65
2023/01/09 09:38:12;;;;;;;;;0.00;0.00;;;;;8.45;65.00;99815.66;5017309;28;45545;-64
2023/01/09 09:41:01;;;;;;;;;0.00;0.00;;;;;8.46;64.92;99830.66;5017415;28;45357;-65
2023/01/09 09:46:44;;;;;;;;;0.00;0.00;;;;;8.24;65.98;99799.22;5016849;28;45467;-65
2023/01/09 09:49:20;;;;;;;;;0.00;0.00;;;;;8.45;65.22;99830.72;5017041;28;45511;-66
2023/01/09 09:52:18;;;;;;;;;1.00;0.00;;;;;8.46;64.92;99846.56;5016804;28;45388;-64
2023/01/09 09:54:48;;;;;;;;;0.00;0.00;;;;;8.56;65.57;99854.78;5016479;28;46248;-65
2023/01/09 09:57:18;;;;;;;;;0.75;0.00;;;;;8.63;65.15;99861.44;5016741;28;45387;-65
2023/01/09 09:59:50;;;;;;;;;0.00;0.00;;;;;8.52;65.09;99819.66;5015369;28;45347;-66
2023/01/09 10:02:50;;;;;;;;;0.25;0.00;;;;;8.89;64.48;99864.31;5016483;28;45462;-64
2023/01/09 10:05:18;;;;;;;;;1.50;0.00;;;;;8.92;64.57;99869.44;4997793;28;45327;-65
2023/01/09 10:07:50;;;;;;;;;0.00;0.00;;;;;8.99;64.47;99865.47;5016747;28;45360;-63
2023/01/09 10:10:45;;;;;;;;;0.75;0.75;;;;;9.09;63.68;99870.09;5016812;28;45291;-65
2023/01/09 10:16:27;;;;;;;;;0.00;0.00;;;;;9.09;63.24;99887.81;5016431;28;45899;-64
2023/01/09 10:19:20;;;;;;;;;0.75;0.00;;;;;9.12;63.97;99892.97;4998483;28;46320;-66
2023/01/09 10:21:45;;;;;;;;;0.00;0.00;;;;;9.16;64.58;99902.44;5016284;28;45303;-64
2023/01/09 10:24:32;;;;;;;;;2.00;0.75;;;;;9.19;63.73;99901.38;4998730;28;45278;-64
2023/01/09 10:27:08;;;;;;;;;0.00;0.00;;;;;9.13;64.95;99907.94;5012725;28;46403;-65
2023/01/09 10:29:59;;;;;;;;;2.00;0.00;;;;;9.16;64.10;99918.34;5017666;28;45454;-65
2023/01/09 10:32:46;;;;;;;;;0.00;0.00;;;;;9.04;65.16;99909.31;5035901;28;45446;-64
2023/01/09 10:35:21;;;;;;;;;0.00;0.00;;;;;9.14;65.01;99926.41;5037031;28;45175;-64
2023/01/09 10:37:52;;;;;;;;;0.00;0.00;;;;;9.18;65.45;99935.00;5036637;28;45329;-65
2023/01/09 10:40:58;;;;;;;;;0.00;0.00;;;;;9.13;63.94;99929.16;5036496;28;45383;-65
2023/01/09 10:43:37;;;;;;;;;0.00;0.00;;;;;9.14;65.05;99937.00;5008720;28;45414;-63
2023/01/09 10:46:14;;;;;;;;;1.00;0.00;;;;;9.14;64.45;99941.47;5033095;28;45775;-64
2023/01/09 10:48:49;;;;;;;;;1.00;1.00;;;;;9.14;64.01;99941.47;5008424;28;46306;-65
2023/01/09 10:51:26;;;;;;;;;1.33;0.00;;;;;9.18;64.75;99947.44;5035493;28;45528;-65
2023/01/09 10:53:54;;;;;;;;;0.00;0.00;;;;;9.25;64.47;99954.09;5035919;28;45486;-65
2023/01/09 10:56:26;;;;;;;;;0.00;0.00;;;;;9.19;63.36;99949.97;5037068;28;45628;-65
2023/01/09 10:58:53;;;;;;;;;0.50;0.00;;;;;9.17;64.17;99941.28;5037294;28;45403;-65
2023/01/09 11:01:27;;;;;;;;;1.00;0.00;;;;;9.20;63.60;99957.00;5035737;28;45408;-65
2023/01/09 11:03:52;;;;;;;;;0.25;0.25;;;;;9.22;63.26;99940.97;5017758;28;45278;-64
2023/01/09 11:06:24;;;;;;;;;0.50;0.50;;;;;9.26;62.78;99961.09;5035398;28;45475;-65
2023/01/09 11:08:55;;;;;;;;;2.00;0.00;;;;;9.29;63.48;99963.56;5017789;28;46953;-65
2023/01/09 11:11:33;;;;;;;;;0.00;0.00;;;;;9.29;64.11;99951.13;5021200;28;45440;-64
2023/01/09 11:14:26;;;;;;;;;1.00;0.00;;;;;9.30;64.61;99949.34;5034512;28;45447;-64
2023/01/09 11:16:57;;;;;;;;;0.00;0.00;;;;;9.30;65.28;99957.31;5026889;28;45273;-66
2023/01/09 11:19:24;;;;;;;;;0.00;0.00;;;;;9.31;65.27;99962.50;5038475;28;46389;-64
2023/01/09 11:21:49;;;;;;;;;1.00;1.00;;;;;9.40;65.77;99953.16;5037970;28;45452;-65
2023/01/09 11:24:17;;;;;;;;;0.00;0.00;;;;;9.42;64.58;99951.25;5039253;28;45427;-66
2023/01/09 11:26:44;;;;;;;;;2.00;2.00;;;;;9.48;64.42;99942.03;5039830;28;45300;-65
2023/01/09 11:29:12;;;;;;;;;0.00;0.00;;;;;9.56;62.97;99937.13;5038404;28;45398;-66
2023/01/09 11:31:42;;;;;;;;;1.00;0.75;;;;;9.59;63.66;99950.19;5039447;28;45380;-64
2023/01/09 11:34:20;;;;;;;;;0.25;0.25;;;;;9.57;63.80;99939.69;5039176;28;45349;-67
2023/01/09 11:36:47;;;;;;;;;0.00;0.00;;;;;9.66;63.17;99943.56;5039053;28;45252;-64
2023/01/09 11:39:26;;;;;;;;;0.00;0.00;;;;;9.81;62.46;99955.88;5039051;28;45658;-66
2023/01/09 11:41:58;;;;;;;;;0.00;0.00;;;;;9.80;62.29;99946.22;5038982;28;45298;-66
2023/01/09 11:44:26;;;;;;;;;0.00;0.00;;;;;9.80;62.46;99943.56;5004375;28;45301;-65
2023/01/09 11:46:52;;;;;;;;;1.00;1.00;;;;;9.87;62.38;99958.13;5039296;28;45293;-66
2023/01/09 11:49:24;;;;;;;;;0.75;0.00;;;;;9.89;62.43;99940.28;5038834;28;45403;-66
2023/01/09 11:52:18;;;;;;;;;3.50;0.00;;;;;10.07;61.54;99950.72;5038952;28;45339;-64
2023/01/09 11:54:58;;;;;;;;;2.50;1.00;;;;;10.26;60.63;99959.22;5038868;28;45646;-65
2023/01/09 11:57:24;;;;;;;;;4.50;0.75;;;;;10.19;60.25;99957.91;5038956;28;45273;-63
2023/01/09 11:59:49;;;;;;;;;0.00;0.00;;;;;10.22;60.45;99955.06;5038361;28;45313;-65
2023/01/09 12:02:39;;;;;;;;;0.67;0.00;;;;;10.30;60.84;99971.38;5020050;28;45634;-65
2023/01/09 12:05:26;;;;;;;;;1.33;0.00;;;;;10.22;61.12;99968.34;5038872;28;45487;-65
2023/01/09 12:08:08;;;;;;;;;2.00;0.00;;;;;10.19;61.21;99963.22;5021513;28;45379;-63